Decoded Metar for USSS (SVERDLOVSK in RUSSIA) (IATA:SVX) | Meteo·Mobile Aviation Weather
aviador You're here:

USSS Decoded Metar

SVERDLOVSK in RUSSIA
Report Time2018-12-15 06:00:00
UTC Time2018-12-15 06:23:26
Flight Rules mvfr MVFR
WindCalm
Visibility5000 m
Phenomena:Mist
Clouds:N/A
Expected CloudBase > 800 ft AGL from Temp-Dew spread
CeilingNone
Temp-17°C (ISA -30)
Dew Point-19°C (85% RH)
AAT-20.5°C
QNH1023 hPa
Density Alt-3,428 ft
Elevation764 ft
Report Wrong Elevation
Raw Report
USSS 150600Z 00000MPS 5000 BR NSC M17/M19 Q1023 R26R/390036 NOSIG
RMK QFE746/0995=

Extra information for USSS:More info

Metar Taf Metar & Taf Last 4 Metars F.Rules Stats Wind Profile Meteogram Temp Stats Airport Information Weather charts Add Link Nearby VenuesMetar ALERT Operation Metar Decoded Social comments